Terminal Aerodrome Forecast
Issued by NWS

Home | Current Version | Previous Version | Text Only | Print | Product List | Glossary On
Versions: 1 2 3 4 5 6 7 8 9 10 11 12 13 14 15 16 17 18 19 20
000
FTUS42 KMLB 221700
TAFSUA
TAF
KSUA 221720Z 2218/2318 01008KT P6SM VCSH SCT015 SCT060 BKN250
     FM230000 03006KT P6SM VCSH SCT030 SCT100 BKN250
     FM230600 02007KT P6SM VCSH SCT020 SCT100 BKN250
     FM231300 03013KT P6SM SCT020 BKN250=

USA.gov is the U.S. government's official web portal to all federal, state and local government web resources and services.